createdAt,value
2022-11-19T15:06:42.769Z,59.00
2022-11-19T15:07:43.027Z,53.00
2022-11-19T15:08:43.286Z,52.00
2022-11-19T15:10:24.122Z,55.00
2022-11-19T15:11:24.610Z,54.00
2022-11-19T15:12:24.949Z,54.00
2022-11-19T15:13:25.499Z,49.00
2022-11-19T15:14:25.833Z,51.00
2022-11-19T15:15:26.380Z,38.00
2022-11-19T15:16:26.723Z,41.00
2022-11-19T15:17:27.104Z,44.00
2022-11-19T15:18:27.401Z,41.00
2022-11-19T15:19:27.864Z,36.00
2022-11-19T15:20:28.162Z,35.00
2022-11-19T15:21:28.722Z,29.00
2022-11-19T15:22:29.180Z,34.00
2022-11-19T15:23:29.412Z,30.00
2022-11-19T15:24:29.747Z,26.00
2022-11-19T15:25:30.109Z,28.00
2022-11-19T15:26:30.393Z,27.00
2022-11-19T15:27:31.091Z,21.00
2022-11-19T15:28:31.315Z,21.00
2022-11-19T15:29:31.864Z,22.00
2022-11-19T15:30:36.445Z,20.00
2022-11-19T15:31:33.545Z,15.00
2022-11-19T15:32:32.991Z,13.00
2022-11-19T15:33:33.230Z,16.00
2022-11-19T15:34:48.997Z,13.00
2022-11-19T15:35:34.882Z,11.00
2022-11-19T15:36:34.198Z,9.00
2022-11-19T15:37:34.775Z,8.00
2022-11-19T15:38:35.125Z,11.00
2022-11-19T15:39:35.429Z,8.00
2022-11-19T15:40:35.754Z,9.00
2022-11-19T15:41:36.093Z,10.00
2022-11-19T15:42:36.510Z,6.00
2022-11-19T15:43:36.731Z,2.00
2022-11-19T15:44:37.044Z,2.00
2022-11-19T15:45:37.445Z,3.00
2022-11-19T15:46:37.743Z,4.00
2022-11-19T15:47:38.413Z,4.00
2022-11-19T15:48:38.591Z,8.00
2022-11-19T15:49:39.124Z,6.00
2022-11-19T15:50:39.475Z,4.00
2022-11-19T15:51:41.718Z,2.00
2022-11-19T15:52:40.228Z,0.00
2022-11-19T15:53:40.708Z,0.00
2022-11-19T15:54:40.913Z,1.00
2022-11-19T15:55:41.478Z,1.00
2022-11-19T15:56:41.951Z,2.00
2022-11-19T15:57:42.469Z,0.00
2022-11-19T15:58:42.911Z,0.00
2022-11-19T15:59:43.268Z,2.00
2022-11-19T16:00:43.609Z,2.00
2022-11-19T16:01:44.364Z,2.00
2022-11-19T16:02:44.504Z,1.00
2022-11-19T16:03:44.790Z,1.00
2022-11-19T16:04:45.103Z,1.00
2022-11-19T16:05:50.049Z,1.00
2022-11-19T16:06:45.729Z,1.00
2022-11-19T16:07:46.294Z,1.00
2022-11-19T16:08:46.551Z,1.00
2022-11-19T16:09:46.969Z,1.00
2022-11-19T16:10:47.465Z,1.00
2022-11-19T16:11:47.995Z,1.00
2022-11-19T16:12:48.416Z,1.00
2022-11-19T16:13:48.646Z,1.00
2022-11-19T16:14:48.932Z,1.00
2022-11-19T16:15:49.262Z,1.00
2022-11-19T16:16:49.568Z,1.00
2022-11-19T16:17:50.228Z,1.00
2022-11-19T16:18:50.416Z,1.00
2022-11-19T16:19:50.969Z,1.00
2022-11-19T16:20:51.236Z,1.00
2022-11-19T16:21:51.776Z,1.00
2022-11-19T16:22:52.198Z,1.00
2022-11-19T16:23:52.408Z,1.00
2022-11-19T16:24:52.720Z,1.00
2022-11-19T16:25:53.294Z,1.00
2022-11-19T16:26:53.575Z,1.00
2022-11-19T16:27:54.163Z,1.00
2022-11-19T16:28:54.470Z,1.00
2022-11-19T16:29:55.010Z,1.00
2022-11-19T16:30:55.331Z,1.00
2022-11-19T16:31:55.850Z,1.00
2022-11-19T16:32:56.184Z,1.00
2022-11-19T16:33:56.514Z,1.00
2022-11-19T16:34:56.810Z,1.00
2022-11-19T16:35:57.145Z,1.00
2022-11-19T16:36:57.412Z,1.00
2022-11-19T16:37:57.984Z,1.00
2022-11-19T16:38:58.291Z,1.00
2022-11-19T16:39:58.674Z,1.00
2022-11-19T16:40:58.915Z,1.00
2022-11-19T16:41:59.457Z,1.00
2022-11-19T16:42:59.774Z,1.00
2022-11-19T16:44:00.089Z,1.00
2022-11-19T16:45:00.365Z,1.00
2022-11-19T16:46:00.895Z,1.00
2022-11-19T16:47:01.247Z,124.00
2022-11-19T16:48:01.727Z,57.00
2022-11-19T16:49:01.949Z,58.00
2022-11-19T16:50:02.296Z,58.00
2022-11-19T16:51:02.613Z,57.00
2022-11-19T16:52:02.965Z,58.00
2022-11-19T16:53:03.404Z,58.00
2022-11-19T16:54:03.652Z,58.00
2022-11-19T16:55:03.950Z,58.00
2022-11-19T16:56:04.305Z,59.00
2022-11-19T16:57:04.621Z,58.00
2022-11-19T16:58:06.701Z,59.00
2022-11-19T16:59:06.358Z,58.00
2022-11-19T17:00:06.073Z,58.00
2022-11-19T17:01:06.626Z,58.00
2022-11-19T17:02:06.993Z,58.00
2022-11-19T17:03:07.317Z,58.00
2022-11-19T17:04:07.847Z,58.00
2022-11-19T17:05:08.148Z,58.00
2022-11-19T17:06:08.706Z,59.00
2022-11-19T17:07:09.048Z,58.00
2022-11-19T17:08:09.331Z,59.00
2022-11-19T17:09:09.597Z,59.00
2022-11-19T17:10:10.035Z,60.00
2022-11-19T17:11:10.532Z,58.00
2022-11-19T17:12:11.047Z,60.00
2022-11-19T17:13:11.678Z,59.00
2022-11-19T17:14:12.113Z,60.00
2022-11-19T17:15:12.744Z,61.00
2022-11-19T17:16:13.110Z,61.00
2022-11-19T17:17:13.068Z,60.00
2022-11-19T17:18:13.589Z,60.00
2022-11-19T17:19:13.996Z,59.00
2022-11-19T17:20:14.413Z,60.00
2022-11-19T17:21:14.687Z,60.00
2022-11-19T17:22:15.093Z,60.00
2022-11-19T17:23:15.705Z,60.00
2022-11-19T17:24:16.130Z,60.00
2022-11-19T17:25:16.642Z,59.00
2022-11-19T17:26:17.070Z,59.00
2022-11-19T17:27:17.543Z,59.00
2022-11-19T17:28:17.996Z,59.00
2022-11-19T17:29:18.233Z,59.00
2022-11-19T17:30:18.679Z,59.00
2022-11-19T17:31:18.959Z,60.00
2022-11-19T17:32:19.364Z,60.00
2022-11-19T17:33:19.790Z,60.00
2022-11-19T17:34:20.275Z,59.00
2022-11-19T17:35:20.303Z,59.00
2022-11-19T17:36:20.730Z,59.00
2022-11-19T17:37:20.997Z,59.00
2022-11-19T17:38:21.525Z,61.00
2022-11-19T17:39:25.357Z,61.00
2022-11-19T17:40:22.087Z,61.00
2022-11-19T17:41:22.592Z,60.00
2022-11-19T17:42:23.013Z,61.00
2022-11-19T17:43:23.400Z,60.00
2022-11-19T17:44:23.824Z,60.00
2022-11-19T17:45:24.099Z,60.00
2022-11-19T17:46:24.510Z,60.00
2022-11-19T17:47:24.873Z,61.00
2022-11-19T17:48:25.412Z,61.00
2022-11-19T17:49:25.888Z,61.00
2022-11-19T17:50:26.313Z,61.00
2022-11-19T17:51:26.791Z,65.00
2022-11-19T17:52:27.130Z,65.00
2022-11-19T17:53:27.466Z,64.00
2022-11-19T17:54:27.797Z,64.00
2022-11-19T17:55:28.095Z,64.00
2022-11-19T17:56:28.657Z,63.00
2022-11-19T17:57:28.957Z,61.00
2022-11-19T17:58:29.345Z,62.00
2022-11-19T17:59:29.680Z,60.00
2022-11-19T18:00:30.005Z,60.00
2022-11-19T18:01:30.388Z,59.00
2022-11-19T18:02:30.671Z,59.00
2022-11-19T18:03:30.985Z,59.00
2022-11-19T18:04:31.333Z,59.00
2022-11-19T18:05:26.712Z,55.00
